Time;durP1;ratioP1;P1;durP2;ratioP2;P2;SDS_P1;SDS_P2;PMS_P1;PMS_P2;Temp;Humidity;BMP_temperature;BMP_pressure;BME280_temperature;BME280_humidity;BME280_pressure;Samples;Min_cycle;Max_cycle;Signal;HPM_P1;HPM_P2
2022/03/31 00:00:19;;;;;;;31.97;20.00;;;;;;;9.51;nan;96854.50;5014735;28;20036;-62
2022/03/31 00:02:44;;;;;;;31.47;20.53;;;;;;;9.42;nan;96839.53;5014943;28;20463;-61
2022/03/31 00:05:10;;;;;;;32.93;20.23;;;;;;;9.43;nan;96841.22;5014407;28;20136;-61
2022/03/31 00:07:47;;;;;;;30.83;20.47;;;;;;;9.49;nan;96846.06;5016942;28;20033;-61
2022/03/31 00:10:12;;;;;;;33.27;20.13;;;;;;;9.45;nan;96841.16;5016469;28;20488;-61
2022/03/31 00:12:38;;;;;;;29.23;20.00;;;;;;;9.43;nan;96842.94;5015479;28;20025;-62
2022/03/31 00:15:03;;;;;;;31.97;18.97;;;;;;;9.37;nan;96830.44;5015641;28;20054;-62
2022/03/31 00:17:29;;;;;;;35.37;22.83;;;;;;;9.36;nan;96831.31;5016792;28;20070;-62
2022/03/31 00:19:54;;;;;;;31.50;21.33;;;;;;;9.39;nan;96849.09;5017773;28;20125;-61
2022/03/31 00:22:19;;;;;;;30.93;19.40;;;;;;;9.36;nan;96839.00;5013386;28;20026;-61
2022/03/31 00:24:45;;;;;;;34.03;21.37;;;;;;;9.21;nan;96820.00;5014052;28;20172;-62
2022/03/31 00:27:11;;;;;;;31.00;20.37;;;;;;;9.41;nan;96848.13;5017416;28;20026;-62
2022/03/31 00:29:37;;;;;;;39.20;24.13;;;;;;;9.36;nan;96833.88;5016939;28;20033;-61
2022/03/31 00:32:03;;;;;;;31.47;20.93;;;;;;;9.39;nan;96843.97;5011451;28;20025;-61
2022/03/31 00:34:30;;;;;;;27.20;19.10;;;;;;;9.39;nan;96841.41;5010392;28;20124;-61
2022/03/31 00:36:56;;;;;;;36.43;20.90;;;;;;;9.37;nan;96827.88;5012761;28;20393;-62
2022/03/31 00:39:32;;;;;;;31.73;21.10;;;;;;;9.52;nan;96840.81;5012359;28;20111;-61
2022/03/31 00:41:59;;;;;;;31.50;19.50;;;;;;;9.50;nan;96839.25;5012084;28;20087;-61
2022/03/31 00:44:25;;;;;;;34.67;19.83;;;;;;;9.55;nan;96834.72;5010846;28;20041;-61
2022/03/31 00:46:53;;;;;;;28.37;19.43;;;;;;;9.46;nan;96820.59;5012744;28;20059;-61
2022/03/31 00:49:23;;;;;;;32.93;20.20;;;;;;;9.56;nan;96827.00;5012084;28;20647;-61
2022/03/31 00:51:50;;;;;;;30.53;20.03;;;;;;;9.52;nan;96829.75;5011290;28;20037;-61
2022/03/31 00:54:17;;;;;;;30.93;21.53;;;;;;;9.51;nan;96815.28;5011412;28;20153;-62
2022/03/31 00:56:43;;;;;;;32.23;21.67;;;;;;;9.48;nan;96795.81;5012254;28;20049;-62
2022/03/31 00:59:09;;;;;;;30.03;20.67;;;;;;;9.59;nan;96815.78;5011274;28;20498;-61
2022/03/31 01:01:39;;;;;;;41.53;21.07;;;;;;;9.46;nan;96799.34;5010886;28;20127;-61
2022/03/31 01:04:06;;;;;;;34.63;20.37;;;;;;;9.47;nan;96803.53;5011048;28;20035;-62
2022/03/31 01:06:32;;;;;;;32.73;21.40;;;;;;;9.37;nan;96812.53;5011361;28;20030;-62
2022/03/31 01:08:59;;;;;;;30.23;19.23;;;;;;;9.25;nan;96807.94;5010865;28;20088;-62
2022/03/31 01:11:24;;;;;;;37.30;20.90;;;;;;;9.05;nan;96778.94;5011890;28;20562;-62
2022/03/31 01:13:50;;;;;;;31.93;20.37;;;;;;;9.27;nan;96799.31;5012207;28;20030;-61
2022/03/31 01:16:16;;;;;;;32.93;20.63;;;;;;;9.23;nan;96791.81;5011126;28;20045;-61
2022/03/31 01:18:41;;;;;;;28.57;19.07;;;;;;;9.07;nan;96787.38;5011512;28;20188;-61
2022/03/31 01:21:09;;;;;;;28.83;19.70;;;;;;;9.14;nan;96810.94;5011237;28;20034;-61
2022/03/31 01:23:35;;;;;;;36.10;22.17;;;;;;;8.96;nan;96788.72;5013184;28;20025;-62
2022/03/31 01:26:01;;;;;;;31.70;21.07;;;;;;;9.04;nan;96807.94;5010885;28;20530;-61
2022/03/31 01:28:26;;;;;;;32.63;19.20;;;;;;;8.89;nan;96798.38;5009866;28;20493;-61
2022/03/31 01:30:52;;;;;;;31.57;19.27;;;;;;;8.85;nan;96801.94;5010805;28;20030;-62
2022/03/31 01:33:17;;;;;;;34.33;19.50;;;;;;;8.73;nan;96789.69;5012363;28;20021;-61
2022/03/31 01:35:43;;;;;;;34.07;19.63;;;;;;;8.67;nan;96780.53;5011681;28;20124;-62
2022/03/31 01:38:08;;;;;;;28.90;18.93;;;;;;;8.64;nan;96783.22;5009783;28;20119;-62
2022/03/31 01:40:35;;;;;;;30.40;18.90;;;;;;;8.61;nan;96791.00;5011789;28;20491;-62
2022/03/31 01:43:00;;;;;;;30.97;19.17;;;;;;;8.54;nan;96791.31;5010504;28;20034;-62
2022/03/31 01:45:26;;;;;;;29.53;20.30;;;;;;;8.39;nan;96784.28;5010213;28;20360;-61
2022/03/31 01:47:52;;;;;;;29.57;20.53;;;;;;;8.37;nan;96799.66;5010375;28;20547;-61
2022/03/31 01:50:17;;;;;;;32.13;19.73;;;;;;;8.20;nan;96772.22;5010598;28;20034;-62
2022/03/31 01:52:43;;;;;;;62.40;37.27;;;;;;;8.14;nan;96772.47;5012595;28;20423;-60
2022/03/31 01:55:10;;;;;;;124.03;69.27;;;;;;;8.09;nan;96769.25;5012499;28;20029;-61
2022/03/31 01:57:35;;;;;;;103.47;58.57;;;;;;;8.11;nan;96785.31;5010375;28;20612;-61
2022/03/31 02:00:02;;;;;;;38.87;25.53;;;;;;;8.12;nan;96786.16;5009254;28;20037;-61
2022/03/31 02:02:30;;;;;;;44.63;27.07;;;;;;;8.08;nan;96787.16;5010801;28;20037;-62
2022/03/31 02:04:56;;;;;;;39.47;24.23;;;;;;;8.01;nan;96773.00;5008673;28;20463;-61
2022/03/31 02:07:21;;;;;;;35.10;21.10;;;;;;;7.93;nan;96783.50;5009407;28;20116;-61
2022/03/31 02:09:46;;;;;;;34.57;21.13;;;;;;;7.88;nan;96789.66;5009348;28;20033;-61
2022/03/31 02:12:12;;;;;;;32.43;21.37;;;;;;;7.78;nan;96779.78;5010895;28;20391;-62
2022/03/31 02:14:37;;;;;;;33.43;19.83;;;;;;;7.81;nan;96791.59;5009688;28;20152;-62
2022/03/31 02:17:07;;;;;;;32.87;19.43;;;;;;;7.62;nan;96773.59;5008168;28;20042;-60
2022/03/31 02:19:33;;;;;;;31.87;21.20;;;;;;;7.66;nan;96779.44;5009899;28;20099;-61
2022/03/31 02:21:59;;;;;;;31.33;19.17;;;;;;;7.65;nan;96790.50;5010384;28;20472;-61
2022/03/31 02:24:24;;;;;;;30.07;19.73;;;;;;;7.64;nan;96776.09;5009648;28;20030;-60
2022/03/31 02:26:51;;;;;;;28.27;18.20;;;;;;;7.51;nan;96764.72;5009761;28;20037;-61
2022/03/31 02:29:18;;;;;;;32.77;20.00;;;;;;;7.49;nan;96767.28;5010645;28;20029;-61
2022/03/31 02:31:46;;;;;;;32.53;21.30;;;;;;;7.56;nan;96762.78;5009151;28;20034;-63
2022/03/31 02:34:12;;;;;;;35.40;20.27;;;;;;;7.54;nan;96754.38;5008864;28;20480;-62
2022/03/31 02:36:38;;;;;;;32.17;18.77;;;;;;;7.48;nan;96755.44;5010516;28;20033;-62
2022/03/31 02:39:04;;;;;;;46.93;25.97;;;;;;;7.45;nan;96757.25;5008091;28;20029;-62
2022/03/31 02:41:29;;;;;;;37.20;24.33;;;;;;;7.38;nan;96750.75;5009397;28;20053;-61
2022/03/31 02:43:54;;;;;;;37.53;23.40;;;;;;;7.35;nan;96751.66;5011263;28;20033;-61
2022/03/31 02:46:20;;;;;;;34.27;22.57;;;;;;;7.28;nan;96757.88;5010543;28;20485;-61
2022/03/31 02:48:45;;;;;;;36.03;22.30;;;;;;;7.19;nan;96743.75;5009327;28;20069;-61
2022/03/31 02:51:11;;;;;;;39.03;22.80;;;;;;;7.21;nan;96762.34;5012471;28;20446;-61
2022/03/31 02:56:20;;;;;;;36.23;21.50;;;;;;;7.19;nan;96742.91;5009697;28;20398;-62
2022/03/31 02:58:46;;;;;;;38.87;22.13;;;;;;;7.20;nan;96739.50;5008393;28;20033;-62
2022/03/31 03:01:11;;;;;;;33.37;22.03;;;;;;;7.18;nan;96738.69;5011868;28;20045;-61
2022/03/31 03:03:36;;;;;;;31.93;22.07;;;;;;;7.18;nan;96738.69;5011211;28;20649;-61
2022/03/31 03:06:02;;;;;;;36.87;20.63;;;;;;;7.15;nan;96746.47;5008997;28;20036;-63
2022/03/31 03:08:28;;;;;;;37.90;22.30;;;;;;;7.11;nan;96748.28;5007476;28;20041;-62
2022/03/31 03:10:54;;;;;;;35.37;21.73;;;;;;;7.20;nan;96754.78;5010628;28;20034;-61
2022/03/31 03:13:20;;;;;;;38.90;23.40;;;;;;;7.33;nan;96759.38;5011572;28;20026;-61
2022/03/31 03:15:48;;;;;;;38.07;22.30;;;;;;;7.35;nan;96749.13;5008759;28;20468;-61
2022/03/31 03:18:15;;;;;;;38.17;20.67;;;;;;;7.27;nan;96728.19;5009821;28;20045;-61
2022/03/31 03:20:40;;;;;;;39.70;21.30;;;;;;;7.18;nan;96708.13;5011288;28;20063;-62
2022/03/31 03:23:06;;;;;;;33.60;20.27;;;;;;;7.22;nan;96722.41;5012464;28;20049;-61
2022/03/31 03:25:31;;;;;;;41.93;22.20;;;;;;;7.21;nan;96729.22;5008340;28;20398;-61
2022/03/31 03:27:58;;;;;;;37.70;21.93;;;;;;;7.27;nan;96736.66;5010299;28;20037;-61
2022/03/31 03:30:23;;;;;;;37.43;23.47;;;;;;;7.34;nan;96735.53;5011521;28;20040;-61
2022/03/31 03:32:49;;;;;;;34.27;21.47;;;;;;;7.33;nan;96743.25;5009870;28;20562;-60
2022/03/31 03:35:15;;;;;;;36.23;21.57;;;;;;;7.33;nan;96744.09;5010432;28;20033;-60
2022/03/31 03:37:42;;;;;;;31.47;21.57;;;;;;;7.18;nan;96720.84;5010571;28;20037;-61
2022/03/31 03:40:10;;;;;;;36.77;21.43;;;;;;;7.29;nan;96739.16;5011538;28;20116;-61
2022/03/31 03:42:38;;;;;;;32.70;21.83;;;;;;;7.26;nan;96736.69;5008340;28;20453;-61
2022/03/31 03:45:05;;;;;;;33.43;21.37;;;;;;;7.26;nan;96734.16;5007704;28;20037;-61
2022/03/31 03:47:31;;;;;;;36.50;20.30;;;;;;;7.26;nan;96724.78;5008546;28;20077;-61
2022/03/31 03:49:56;;;;;;;31.97;20.60;;;;;;;7.41;nan;96730.22;5012403;28;20033;-62
2022/03/31 03:52:22;;;;;;;35.13;19.17;;;;;;;7.32;nan;96722.03;5009216;28;20617;-62
2022/03/31 03:54:47;;;;;;;35.07;20.67;;;;;;;7.37;nan;96731.22;5008237;28;20042;-62
2022/03/31 03:57:13;;;;;;;33.83;22.00;;;;;;;7.35;nan;96744.84;5011612;28;20361;-61
2022/03/31 03:59:39;;;;;;;43.23;22.10;;;;;;;7.35;nan;96734.66;5010302;28;20044;-61
2022/03/31 04:02:04;;;;;;;36.77;22.10;;;;;;;7.30;nan;96720.41;5008912;28;20321;-61
2022/03/31 04:04:30;;;;;;;44.00;22.53;;;;;;;7.42;nan;96737.84;5007999;28;20031;-61
2022/03/31 04:06:57;;;;;;;33.53;20.00;;;;;;;7.36;nan;96725.28;5009539;28;20369;-60
2022/03/31 04:09:23;;;;;;;35.17;20.73;;;;;;;7.34;nan;96727.88;5012121;28;20543;-60
2022/03/31 04:11:48;;;;;;;31.70;20.97;;;;;;;7.41;nan;96737.88;5011511;28;20129;-61
2022/03/31 04:14:14;;;;;;;33.03;20.97;;;;;;;7.38;nan;96733.72;5010659;28;20522;-61
2022/03/31 04:16:40;;;;;;;34.43;22.47;;;;;;;7.36;nan;96738.03;5013204;28;20633;-61
2022/03/31 04:19:08;;;;;;;33.27;21.60;;;;;;;7.33;nan;96746.66;5013749;28;20100;-61
2022/03/31 04:21:35;;;;;;;33.23;20.87;;;;;;;7.31;nan;96747.56;5012052;28;20472;-61
2022/03/31 04:24:00;;;;;;;30.17;21.37;;;;;;;7.27;nan;96728.19;5011516;28;20025;-62
2022/03/31 04:26:26;;;;;;;33.33;21.00;;;;;;;7.26;nan;96723.97;5013043;28;20079;-61
2022/03/31 04:28:51;;;;;;;39.50;22.93;;;;;;;7.30;nan;96728.88;5012893;28;20033;-61
2022/03/31 04:31:16;;;;;;;44.47;27.63;;;;;;;7.45;nan;96740.25;5010478;28;20048;-62
2022/03/31 04:33:42;;;;;;;42.03;23.73;;;;;;;7.27;nan;96730.72;5009839;28;20073;-61
2022/03/31 04:36:07;;;;;;;34.53;23.47;;;;;;;7.17;nan;96717.47;5014781;28;20037;-62
2022/03/31 04:38:33;;;;;;;63.53;33.23;;;;;;;7.33;nan;96744.09;5013109;28;20037;-61
2022/03/31 04:40:58;;;;;;;68.43;34.40;;;;;;;7.34;nan;96740.63;5010974;28;20033;-61
2022/03/31 04:43:24;;;;;;;46.90;23.97;;;;;;;7.25;nan;96728.25;5011477;28;20116;-61
2022/03/31 04:45:49;;;;;;;37.73;21.67;;;;;;;7.37;nan;96749.91;5012685;28;20110;-61
2022/03/31 04:48:14;;;;;;;43.87;23.97;;;;;;;7.25;nan;96728.25;5013500;28;20116;-61
2022/03/31 04:50:40;;;;;;;38.07;21.33;;;;;;;7.39;nan;96732.00;5011365;28;20529;-62
2022/03/31 04:53:06;;;;;;;35.33;20.67;;;;;;;7.40;nan;96723.47;5011959;28;20026;-61
2022/03/31 04:55:32;;;;;;;39.90;25.13;;;;;;;7.37;nan;96724.41;5012850;28;20040;-61
2022/03/31 04:57:58;;;;;;;40.00;23.40;;;;;;;7.42;nan;96739.53;5011849;28;20096;-61
2022/03/31 05:00:23;;;;;;;36.97;23.20;;;;;;;7.16;nan;96710.75;5010787;28;20033;-61
2022/03/31 05:02:49;;;;;;;32.13;20.73;;;;;;;7.19;nan;96723.38;5013962;28;20026;-60
2022/03/31 05:05:15;;;;;;;36.97;20.73;;;;;;;7.27;nan;96728.19;5013602;28;20022;-60
2022/03/31 05:07:41;;;;;;;33.30;20.53;;;;;;;7.30;nan;96730.59;5011876;28;20052;-60
2022/03/31 05:10:07;;;;;;;33.17;20.30;;;;;;;7.16;nan;96720.09;5010164;28;20030;-60
2022/03/31 05:12:32;;;;;;;31.60;20.07;;;;;;;7.21;nan;96729.22;5013020;28;20122;-61
2022/03/31 05:14:58;;;;;;;31.37;19.03;;;;;;;7.22;nan;96725.78;5011906;28;20061;-60
2022/03/31 05:17:23;;;;;;;37.97;21.67;;;;;;;7.21;nan;96726.66;5011085;28;20042;-60
2022/03/31 05:19:49;;;;;;;34.07;19.40;;;;;;;7.29;nan;96732.34;5010557;28;20494;-60
2022/03/31 05:22:14;;;;;;;35.30;19.50;;;;;;;7.25;nan;96730.81;5012478;28;20026;-60
2022/03/31 05:24:40;;;;;;;37.40;20.23;;;;;;;7.32;nan;96739.03;5013357;28;20489;-64
2022/03/31 05:27:05;;;;;;;34.57;21.53;;;;;;;7.38;nan;96738.00;5009994;28;20066;-62
2022/03/31 05:29:31;;;;;;;35.37;21.90;;;;;;;7.40;nan;96737.03;5010311;28;20296;-62
2022/03/31 05:31:57;;;;;;;34.10;20.40;;;;;;;7.53;nan;96738.25;5013079;28;20037;-61
2022/03/31 05:34:23;;;;;;;36.47;21.80;;;;;;;7.56;nan;96738.13;5013134;28;20045;-62
2022/03/31 05:36:49;;;;;;;33.90;20.70;;;;;;;7.63;nan;96738.75;5010791;28;20392;-60
2022/03/31 05:39:16;;;;;;;36.97;22.57;;;;;;;7.61;nan;96727.75;5011878;28;20037;-61
2022/03/31 05:41:41;;;;;;;39.57;21.77;;;;;;;7.74;nan;96736.59;5011485;28;20030;-61
2022/03/31 05:44:06;;;;;;;40.07;22.90;;;;;;;7.82;nan;96737.13;5012510;28;20108;-59
2022/03/31 05:46:32;;;;;;;37.57;23.70;;;;;;;7.91;nan;96744.44;5009587;28;20156;-61
2022/03/31 05:48:58;;;;;;;39.40;23.17;;;;;;;7.97;nan;96748.50;5010482;28;20868;-60
2022/03/31 05:51:24;;;;;;;37.63;22.53;;;;;;;7.95;nan;96740.88;5011375;28;20138;-61
2022/03/31 05:53:50;;;;;;;38.33;22.63;;;;;;;7.93;nan;96729.94;5009828;28;20042;-61
2022/03/31 05:56:15;;;;;;;43.27;23.67;;;;;;;7.94;nan;96731.56;5010046;28;20483;-61
2022/03/31 05:58:41;;;;;;;43.80;23.90;;;;;;;8.02;nan;96742.28;5011153;28;20042;-61
2022/03/31 06:01:06;;;;;;;43.13;24.53;;;;;;;8.05;nan;96746.47;5012740;28;20021;-61
2022/03/31 06:03:32;;;;;;;42.53;24.17;;;;;;;7.97;nan;96734.00;5010805;28;20376;-60
2022/03/31 06:05:58;;;;;;;39.13;23.03;;;;;;;7.99;nan;96736.47;5009409;28;20670;-61
2022/03/31 06:08:23;;;;;;;38.43;23.37;;;;;;;7.99;nan;96741.59;5011958;28;20033;-62
2022/03/31 06:10:49;;;;;;;41.37;23.57;;;;;;;8.02;nan;96744.84;5012791;28;20026;-60
2022/03/31 06:13:14;;;;;;;42.90;23.97;;;;;;;8.11;nan;96743.66;5011149;28;20527;-61
2022/03/31 06:15:40;;;;;;;40.80;23.50;;;;;;;8.03;nan;96732.91;5008845;28;20111;-60
2022/03/31 06:18:09;;;;;;;52.97;27.17;;;;;;;7.93;nan;96714.63;5011778;28;20030;-60
2022/03/31 06:20:35;;;;;;;41.60;25.20;;;;;;;8.07;nan;96735.28;5013675;28;20025;-60
2022/03/31 06:23:02;;;;;;;40.57;22.77;;;;;;;8.14;nan;96741.00;5008454;28;20044;-60
2022/03/31 06:25:27;;;;;;;44.10;25.93;;;;;;;8.19;nan;96739.06;5009577;28;20032;-61
2022/03/31 06:27:53;;;;;;;46.13;27.13;;;;;;;8.20;nan;96733.09;5011761;28;20392;-61
2022/03/31 06:30:19;;;;;;;46.93;26.97;;;;;;;8.28;nan;96731.06;5012672;28;20462;-60
2022/03/31 06:32:45;;;;;;;52.63;28.93;;;;;;;8.17;nan;96716.19;5012606;28;20762;-61
2022/03/31 06:35:14;;;;;;;50.43;28.00;;;;;;;8.28;nan;96729.34;5010828;28;20040;-61
2022/03/31 06:37:44;;;;;;;51.57;28.37;;;;;;;8.25;nan;96737.13;5011945;28;20037;-61
2022/03/31 06:40:12;;;;;;;49.83;29.43;;;;;;;8.16;nan;96724.72;5011200;28;20091;-61
2022/03/31 06:42:39;;;;;;;50.80;28.30;;;;;;;8.22;nan;96728.75;5008786;28;20049;-61
2022/03/31 06:45:05;;;;;;;52.83;29.40;;;;;;;8.16;nan;96721.34;5011779;28;20041;-62
2022/03/31 06:47:31;;;;;;;51.03;28.97;;;;;;;8.19;nan;96724.59;5010591;28;20589;-62
2022/03/31 06:49:56;;;;;;;62.10;29.80;;;;;;;8.31;nan;96728.44;5009936;28;20029;-60
2022/03/31 06:52:21;;;;;;;56.80;30.37;;;;;;;8.32;nan;96726.72;5007988;28;20551;-60
2022/03/31 06:54:47;;;;;;;51.70;29.97;;;;;;;8.32;nan;96729.25;5010179;28;20063;-61
2022/03/31 06:57:12;;;;;;;55.70;31.27;;;;;;;8.33;nan;96725.78;5011710;28;20043;-61
2022/03/31 06:59:38;;;;;;;58.27;31.83;;;;;;;8.36;nan;96725.69;5009651;28;20040;-61
2022/03/31 07:02:03;;;;;;;59.47;33.77;;;;;;;8.34;nan;96725.75;5008815;28;20042;-59
2022/03/31 07:04:29;;;;;;;59.43;32.87;;;;;;;8.33;nan;96711.31;5009873;28;20396;-61
2022/03/31 07:06:54;;;;;;;56.13;31.60;;;;;;;8.31;nan;96722.50;5011273;28;20520;-60
2022/03/31 07:09:20;;;;;;;63.37;34.40;;;;;;;8.23;nan;96720.22;5009482;28;20355;-60
2022/03/31 07:11:45;;;;;;;63.37;33.13;;;;;;;8.16;nan;96708.56;5009322;28;20025;-60
2022/03/31 07:14:11;;;;;;;59.03;30.90;;;;;;;8.26;nan;96722.66;5010477;28;20597;-61
2022/03/31 07:16:36;;;;;;;60.80;32.97;;;;;;;8.20;nan;96716.06;5011273;28;20089;-61
2022/03/31 07:19:03;;;;;;;59.70;31.90;;;;;;;8.27;nan;96727.66;5010071;28;20033;-61
2022/03/31 07:21:28;;;;;;;55.53;32.07;;;;;;;8.32;nan;96737.72;5008820;28;20033;-61
2022/03/31 07:23:54;;;;;;;53.63;30.97;;;;;;;8.33;nan;96736.00;5012091;28;20038;-61
2022/03/31 07:26:19;;;;;;;57.50;32.30;;;;;;;8.18;nan;96738.28;5010580;28;20080;-61
2022/03/31 07:28:45;;;;;;;62.47;32.57;;;;;;;8.18;nan;96720.41;5010266;28;20423;-61
2022/03/31 07:31:11;;;;;;;54.00;31.20;;;;;;;8.27;nan;96721.75;5007657;28;20365;-61
2022/03/31 07:33:36;;;;;;;58.57;32.53;;;;;;;8.36;nan;96739.25;5011185;28;20042;-61
2022/03/31 07:36:02;;;;;;;63.10;32.13;;;;;;;8.32;nan;96724.16;5011704;28;20072;-62
2022/03/31 07:38:27;;;;;;;56.47;33.73;;;;;;;8.36;nan;96726.50;5009893;28;20033;-62
2022/03/31 07:40:53;;;;;;;55.97;32.87;;;;;;;8.42;nan;96730.53;5010365;28;20042;-60
2022/03/31 07:43:19;;;;;;;60.53;31.53;;;;;;;8.48;nan;96743.91;5013670;28;20434;-60
2022/03/31 07:45:45;;;;;;;66.60;33.87;;;;;;;8.49;nan;96750.63;5014337;28;20038;-61
2022/03/31 07:48:15;;;;;;;56.37;30.93;;;;;;;8.48;nan;96750.72;5012600;28;20069;-61
2022/03/31 07:50:41;;;;;;;58.37;30.57;;;;;;;8.33;nan;96726.63;5013587;28;20080;-61
2022/03/31 07:53:08;;;;;;;65.63;33.63;;;;;;;8.41;nan;96733.97;5016238;28;20026;-60
2022/03/31 07:55:33;;;;;;;57.47;32.77;;;;;;;8.38;nan;96741.75;5013530;28;20112;-61
2022/03/31 07:57:59;;;;;;;60.83;31.50;;;;;;;8.47;nan;96755.00;5011172;28;20099;-61
2022/03/31 08:00:25;;;;;;;65.90;33.20;;;;;;;8.46;nan;96755.88;5021190;28;20030;-61
2022/03/31 08:02:51;;;;;;;65.13;34.20;;;;;;;8.47;nan;96743.94;5013987;28;20036;-60
2022/03/31 08:05:22;;;;;;;68.13;39.13;;;;;;;8.36;nan;96741.00;5014966;28;20034;-60
2022/03/31 08:07:49;;;;;;;69.40;36.20;;;;;;;8.33;nan;96741.13;5009153;28;20453;-61
2022/03/31 08:10:16;;;;;;;71.73;37.77;;;;;;;8.26;nan;96736.25;5012628;28;20087;-60
2022/03/31 08:12:44;;;;;;;66.57;36.57;;;;;;;8.33;nan;96741.94;5013913;28;20448;-59
2022/03/31 08:15:11;;;;;;;73.27;37.93;;;;;;;8.42;nan;96756.06;5012632;28;20350;-57
2022/03/31 08:17:38;;;;;;;73.30;37.57;;;;;;;8.50;nan;96751.47;5012098;28;20034;-59
2022/03/31 08:20:08;;;;;;;70.67;37.77;;;;;;;8.34;nan;96732.56;5014646;28;20044;-59
2022/03/31 08:22:33;;;;;;;67.40;39.30;;;;;;;8.42;nan;96733.91;5012825;28;20396;-59
2022/03/31 08:25:00;;;;;;;79.93;40.67;;;;;;;8.50;nan;96754.84;5012649;28;20030;-59
2022/03/31 08:27:26;;;;;;;74.77;38.97;;;;;;;8.58;nan;96747.72;5011247;28;20030;-60
2022/03/31 08:29:51;;;;;;;71.83;38.77;;;;;;;8.55;nan;96737.63;5013987;28;20061;-60
2022/03/31 08:32:16;;;;;;;71.80;39.60;;;;;;;8.49;nan;96747.25;5014482;28;20022;-60
2022/03/31 08:34:42;;;;;;;73.47;39.20;;;;;;;8.52;nan;96747.16;5011301;28;20095;-60
2022/03/31 08:37:07;;;;;;;69.70;38.03;;;;;;;8.55;nan;96742.75;5011535;28;20088;-59
2022/03/31 08:39:33;;;;;;;71.73;38.80;;;;;;;8.47;nan;96749.88;5014706;28;20038;-60
2022/03/31 08:41:59;;;;;;;73.77;40.93;;;;;;;8.42;nan;96727.97;5014934;28;20489;-59
2022/03/31 08:44:25;;;;;;;79.03;41.43;;;;;;;8.45;nan;96745.72;5010166;28;20030;-59
2022/03/31 08:46:51;;;;;;;77.23;43.10;;;;;;;8.38;nan;96729.84;5013487;28;20042;-59
2022/03/31 08:49:17;;;;;;;70.67;41.17;;;;;;;8.46;nan;96739.72;5014653;28;20467;-60
2022/03/31 08:51:44;;;;;;;70.10;39.10;;;;;;;8.42;nan;96739.03;5011756;28;20047;-59
2022/03/31 08:54:09;;;;;;;83.50;43.03;;;;;;;8.44;nan;96744.06;5009578;28;20056;-62
2022/03/31 08:56:36;;;;;;;73.17;39.10;;;;;;;8.38;nan;96740.03;5012388;28;20026;-59
2022/03/31 08:59:02;;;;;;;69.27;39.80;;;;;;;8.34;nan;96742.78;5014153;28;20022;-61
2022/03/31 09:01:28;;;;;;;79.37;43.17;;;;;;;8.32;nan;96734.38;5012906;28;20021;-60
2022/03/31 09:03:53;;;;;;;73.57;42.60;;;;;;;8.37;nan;96727.31;5010549;28;20750;-60
2022/03/31 09:06:23;;;;;;;73.77;39.93;;;;;;;8.52;nan;96740.31;5011994;28;20532;-60
2022/03/31 09:09:04;;;;;;;75.87;41.20;;;;;;;8.61;nan;96739.91;5013739;28;20132;-60
2022/03/31 09:11:37;;;;;;;77.60;39.70;;;;;;;8.69;nan;96739.63;5012361;28;20391;-62
2022/03/31 09:14:04;;;;;;;70.27;37.87;;;;;;;8.74;nan;96741.97;5010053;28;20306;-60
2022/03/31 09:16:36;;;;;;;72.90;39.83;;;;;;;8.77;nan;96737.56;5011809;28;20172;-60
2022/03/31 09:19:10;;;;;;;71.50;37.43;;;;;;;8.63;nan;96730.47;5014708;28;20038;-61
2022/03/31 09:21:52;;;;;;;68.93;39.17;;;;;;;8.56;nan;96720.59;5010707;28;20084;-60
2022/03/31 09:24:20;;;;;;;68.30;39.20;;;;;;;8.65;nan;96720.22;5011277;28;21184;-60
2022/03/31 09:26:47;;;;;;;65.80;36.50;;;;;;;8.47;nan;96719.25;5013530;28;20206;-61
2022/03/31 09:29:14;;;;;;;64.97;37.23;;;;;;;8.36;nan;96711.19;5011851;28;20030;-60
2022/03/31 09:31:40;;;;;;;76.80;40.03;;;;;;;8.45;nan;96733.78;5009720;28;20041;-59
2022/03/31 09:34:06;;;;;;;70.77;40.47;;;;;;;8.45;nan;96732.94;5012372;28;20432;-61
2022/03/31 09:36:32;;;;;;;71.77;39.50;;;;;;;8.39;nan;96735.78;5011956;28;20645;-60
2022/03/31 09:39:03;;;;;;;66.47;40.20;;;;;;;8.39;nan;96728.09;5010497;28;20085;-60
2022/03/31 09:41:31;;;;;;;68.80;38.17;;;;;;;8.36;nan;96718.03;5009767;28;20121;-60
2022/03/31 09:44:00;;;;;;;73.40;39.97;;;;;;;8.46;nan;96734.63;5011192;28;20055;-60
2022/03/31 09:46:27;;;;;;;76.23;40.20;;;;;;;8.46;nan;96732.91;5013923;28;20068;-61
2022/03/31 09:48:55;;;;;;;67.60;36.90;;;;;;;8.42;nan;96728.81;5011137;28;20030;-61
2022/03/31 09:51:22;;;;;;;66.83;37.23;;;;;;;8.39;nan;96730.66;5010281;28;20029;-60
2022/03/31 09:53:49;;;;;;;62.43;37.33;;;;;;;8.36;nan;96703.50;5011649;28;20171;-61
2022/03/31 09:56:21;;;;;;;61.50;35.37;;;;;;;8.41;nan;96716.94;5011895;28;20483;-61
2022/03/31 09:58:48;;;;;;;59.57;33.80;;;;;;;8.43;nan;96711.78;5010721;28;20037;-60
2022/03/31 10:01:15;;;;;;;55.50;32.33;;;;;;;8.41;nan;96711.81;5010418;28;20702;-61
2022/03/31 10:03:41;;;;;;;58.73;34.57;;;;;;;8.36;nan;96687.41;5012057;28;20432;-60
2022/03/31 10:06:08;;;;;;;60.80;34.53;;;;;;;8.49;nan;96693.63;5012318;28;20096;-60
2022/03/31 10:08:38;;;;;;;60.53;34.50;;;;;;;8.56;nan;96695.88;5009528;28;20468;-60
2022/03/31 10:11:05;;;;;;;60.47;33.93;;;;;;;8.60;nan;96688.91;5010879;28;20571;-60
2022/03/31 10:13:42;;;;;;;57.97;33.20;;;;;;;8.66;nan;96693.75;5012052;28;20056;-60
2022/03/31 10:16:13;;;;;;;54.00;33.13;;;;;;;8.65;nan;96681.91;5011117;28;20069;-60
2022/03/31 10:18:40;;;;;;;53.13;31.37;;;;;;;8.24;nan;96666.53;5010363;28;20030;-60
2022/03/31 10:21:05;;;;;;;58.83;32.03;;;;;;;8.41;nan;96677.78;5009683;28;20117;-55
2022/03/31 10:26:27;;;;;;;55.87;32.17;;;;;;;8.45;nan;96675.06;5011222;28;20033;-62
2022/03/31 10:29:09;;;;;;;56.23;31.90;;;;;;;8.51;nan;96673.97;5009041;28;20040;-61
2022/03/31 10:31:38;;;;;;;52.13;32.20;;;;;;;8.71;nan;96672.22;5014384;28;20346;-61
2022/03/31 10:34:07;;;;;;;48.73;30.30;;;;;;;8.79;nan;96671.88;5012662;28;20295;-62
2022/03/31 10:36:38;;;;;;;50.77;29.97;;;;;;;8.75;nan;96666.97;5010399;28;20033;-61
2022/03/31 10:39:08;;;;;;;47.57;29.13;;;;;;;8.58;nan;96642.16;5009914;28;20029;-61
2022/03/31 10:41:39;;;;;;;42.70;27.87;;;;;;;8.68;nan;96657.03;5012226;28;20152;-61
2022/03/31 10:44:13;;;;;;;46.67;26.03;;;;;;;8.70;nan;96660.34;5010483;28;20049;-61
2022/03/31 10:46:44;;;;;;;37.55;24.40;;;;;;;8.70;nan;96654.41;5008745;28;20052;-62
2022/03/31 10:49:19;;;;;;;43.17;27.37;;;;;;;8.75;nan;96649.94;5009873;28;20037;-62
2022/03/31 10:51:46;;;;;;;43.40;27.33;;;;;;;8.57;nan;96637.97;5012445;28;20305;-62
2022/03/31 10:54:24;;;;;;;44.23;26.77;;;;;;;8.50;nan;96628.91;5011618;28;20063;-62
2022/03/31 10:57:20;;;;;;;40.20;26.50;;;;;;;8.52;nan;96637.34;5009872;28;20037;-60
2022/03/31 10:59:48;;;;;;;45.33;26.37;;;;;;;8.53;nan;96642.34;5010951;28;20046;-60
2022/03/31 11:02:19;;;;;;;45.60;29.13;;;;;;;8.52;nan;96630.50;5011626;28;20065;-62
2022/03/31 11:04:53;;;;;;;43.23;27.97;;;;;;;8.63;nan;96638.53;5010459;28;20030;-62
2022/03/31 11:07:22;;;;;;;44.10;27.20;;;;;;;8.59;nan;96624.22;5009120;28;20642;-65
2022/03/31 11:09:58;;;;;;;38.80;25.27;;;;;;;8.59;nan;96634.44;5011187;28;20041;-62
2022/03/31 11:12:27;;;;;;;38.93;24.30;;;;;;;8.55;nan;96640.59;5011420;28;20087;-62
2022/03/31 11:15:00;;;;;;;39.03;23.97;;;;;;;8.47;nan;96636.69;5008069;28;20049;-62
2022/03/31 11:17:27;;;;;;;41.87;27.17;;;;;;;8.31;nan;96630.59;5009823;28;20480;-62
2022/03/31 11:19:55;;;;;;;37.23;23.83;;;;;;;8.19;nan;96632.69;5010788;28;20468;-62
2022/03/31 11:22:27;;;;;;;34.17;24.93;;;;;;;8.28;nan;96634.03;5006839;28;20026;-63
2022/03/31 11:25:11;;;;;;;40.97;24.50;;;;;;;8.25;nan;96635.00;5009725;28;20530;-62
2022/03/31 11:27:40;;;;;;;41.33;24.37;;;;;;;8.25;nan;96631.63;5010609;28;20137;-61
2022/03/31 11:30:15;;;;;;;38.17;24.90;;;;;;;8.16;nan;96619.25;5011104;28;20075;-61
2022/03/31 11:32:42;;;;;;;36.00;23.00;;;;;;;7.96;nan;96604.78;5009733;28;20341;-61
2022/03/31 11:35:13;;;;;;;31.97;20.83;;;;;;;8.20;nan;96631.81;5017447;28;20037;-62
2022/03/31 11:37:48;;;;;;;38.87;23.10;;;;;;;7.94;nan;96619.31;5011158;28;20063;-61
2022/03/31 11:40:24;;;;;;;36.53;22.40;;;;;;;8.10;nan;96633.13;5009484;28;20049;-62
2022/03/31 11:42:52;;;;;;;34.20;20.80;;;;;;;7.91;nan;96611.78;5009085;28;20056;-61
2022/03/31 11:45:36;;;;;;;29.33;20.83;;;;;;;7.94;nan;96613.38;5009170;28;20037;-61